Terminal Aerodrome Forecast
Issued by NWS Goodland, KS

Home | Current Version | Previous Version | Text Only | Print | Product List | Glossary On
Versions: 1 2 3 4 5 6 7 8 9 10 11 12 13 14 15 16 17 18
000
FTUS43 KGLD 290525
TAFGLD
TAF
KGLD 290525Z 2906/3006 33012KT P6SM SCT100
     FM291400 35014G22KT P6SM FEW200
     FM292000 35008KT P6SM FEW200
     FM292300 VRB04KT P6SM BKN250=

USA.gov is the U.S. government's official web portal to all federal, state and local government web resources and services.